Date,TemperatureHighF,TemperatureAvgF,TemperatureLowF,DewpointHighF,DewpointAvgF,DewpointLowF,HumidityHigh,HumidityAvg,HumidityLow,PressureMaxIn,PressureMinIn,WindSpeedMaxMPH,WindSpeedAvgMPH,GustSpeedMaxMPH,PrecipitationSumIn
2013-5-1,70.9,57.4,43.2,40.1,35.4,28.7,77,48,25,30.44,30.30,15,4,15,0.00
2013-5-2,70.3,57.5,43.9,43.2,38.4,34.7,81,52,28,30.44,30.32,15,3,15,0.00
2013-5-3,67.8,56.9,46.2,42.8,37.4,32.8,82,50,34,30.41,30.32,15,4,15,0.00
2013-5-4,69.8,57.0,46.4,41.0,36.8,29.5,77,50,28,30.35,30.21,17,4,17,0.00
2013-5-5,65.7,54.6,45.9,38.7,35.5,31.0,70,50,34,30.26,30.18,15,4,15,0.00
2013-5-6,65.1,55.6,45.5,53.9,46.1,37.2,88,71,57,30.24,30.09,16,5,16,0.00
2013-5-7,64.4,60.9,57.7,62.2,57.9,52.8,100,90,76,30.12,29.97,16,7,16,0.47
2013-5-8,73.4,63.6,59.0,57.7,52.5,45.8,91,69,41,30.03,29.94,13,3,13,0.00
2013-5-9,75.9,64.5,55.0,53.7,49.8,43.9,91,62,35,30.00,29.91,13,3,13,0.00
2013-5-10,83.3,69.5,54.9,61.0,51.9,47.2,85,58,32,30.03,29.88,20,3,20,1.06
2013-5-11,79.2,67.8,63.9,63.7,60.2,49.1,93,78,39,29.94,29.70,26,2,26,0.35
2013-5-12,64.9,60.3,51.6,62.2,36.5,20.4,92,46,23,30.03,29.73,26,7,26,0.00
2013-5-13,60.3,52.3,44.4,28.4,24.0,19.4,53,34,24,30.18,30.03,18,5,18,0.00
2013-5-14,64.4,51.9,37.2,43.6,28.2,21.8,68,43,25,30.24,30.06,17,3,17,0.00
2013-5-15,78.3,65.5,54.0,57.5,48.9,37.6,70,56,37,30.09,29.73,6,1,6,0.00
2013-5-16,82.2,72.1,63.1,59.4,53.1,48.6,80,54,33,29.91,29.76,19,4,19,0.00
2013-5-17,81.5,70.7,57.6,56.2,42.3,33.3,76,40,22,30.18,29.91,14,3,14,0.00
2013-5-18,72.5,65.4,59.9,57.2,47.7,41.0,89,55,35,30.24,30.18,12,3,12,0.00
2013-5-19,67.1,63.6,59.7,62.9,60.7,56.6,100,90,81,30.24,30.12,9,3,9,0.04
2013-5-20,82.4,71.9,64.9,65.9,61.7,56.0,95,72,44,30.15,30.00,9,2,9,0.00
2013-5-21,86.4,75.1,66.6,66.5,62.8,59.4,92,68,42,30.00,29.85,9,2,9,0.00
2013-5-22,88.3,78.1,69.1,68.3,63.4,53.5,90,63,38,29.91,29.82,13,3,13,0.00
2013-5-23,82.4,71.6,66.4,64.5,61.4,55.5,87,71,42,29.88,29.76,12,3,12,0.63
2013-5-24,66.7,58.7,50.2,62.7,45.2,26.3,90,63,39,30.15,29.79,20,8,20,0.08
2013-5-25,69.8,56.5,45.3,32.4,28.0,23.8,50,34,24,30.15,30.06,26,9,26,0.00
2013-5-26,75.6,60.7,48.4,34.5,30.4,24.9,47,33,22,30.24,30.12,20,6,20,0.00
2013-5-27,73.6,61.9,46.8,44.4,35.9,29.9,73,41,24,30.32,30.18,12,2,12,0.00
2013-5-28,74.1,65.8,58.8,62.2,54.6,41.3,89,68,49,30.24,30.09,7,1,7,0.04
2013-5-29,89.8,78.0,64.6,67.5,58.7,52.0,93,57,30,30.12,30.03,15,4,15,0.00
2013-5-30,93.0,81.3,68.9,63.6,58.3,52.5,74,48,26,30.18,30.09,12,2,12,0.00
2013-5-31,92.1,80.9,67.3,63.1,56.8,47.8,80,48,23,30.15,30.00,15,3,15,0.00